Time;durP1;ratioP1;P1;durP2;ratioP2;P2;SDS_P1;SDS_P2;PMS_P1;PMS_P2;Temp;Humidity;BMP_temperature;BMP_pressure;BME280_temperature;BME280_humidity;BME280_pressure;Samples;Min_cycle;Max_cycle;Signal;HPM_P1;HPM_P2
2021/05/14 00:00:25;;;;;;;25.45;22.60;;;15.00;80.80;;;;;;4974329;28;20542;-76
2021/05/14 00:02:52;;;;;;;30.50;24.25;;;15.00;80.60;;;;;;4974062;28;20026;-77
2021/05/14 00:05:18;;;;;;;27.23;20.73;;;15.10;80.50;;;;;;4974173;28;20049;-77
2021/05/14 00:07:43;;;;;;;29.95;20.77;;;15.10;80.50;;;;;;4973956;28;20087;-76
2021/05/14 00:10:12;;;;;;;26.48;19.17;;;15.00;80.60;;;;;;4973941;28;20421;-76
2021/05/14 00:12:38;;;;;;;28.83;19.58;;;15.00;80.80;;;;;;4973879;28;20031;-76
2021/05/14 00:15:05;;;;;;;20.35;17.25;;;15.00;81.00;;;;;;4970480;28;20556;-76
2021/05/14 00:17:31;;;;;;;18.20;14.00;;;15.00;81.10;;;;;;4973783;28;20089;-76
2021/05/14 00:19:57;;;;;;;22.67;15.00;;;15.00;81.20;;;;;;4973781;28;20038;-76
2021/05/14 00:22:22;;;;;;;19.52;13.55;;;15.00;81.30;;;;;;4973829;28;20105;-76
2021/05/14 00:24:48;;;;;;;17.80;13.32;;;15.00;81.30;;;;;;4973462;28;20034;-76
2021/05/14 00:27:14;;;;;;;19.00;13.30;;;15.00;81.50;;;;;;4973119;28;20065;-76
2021/05/14 00:29:40;;;;;;;16.48;12.82;;;15.00;81.60;;;;;;4973597;28;20042;-75
2021/05/14 00:32:06;;;;;;;17.65;11.85;;;15.00;81.60;;;;;;4973543;28;20113;-75
2021/05/14 00:34:32;;;;;;;16.48;11.85;;;15.00;81.70;;;;;;4972370;28;20026;-75
2021/05/14 00:36:58;;;;;;;14.18;12.25;;;15.00;81.70;;;;;;4973751;28;20035;-75
2021/05/14 00:39:23;;;;;;;15.50;12.00;;;15.00;81.80;;;;;;4973785;28;20077;-75
2021/05/14 00:41:49;;;;;;;17.00;11.88;;;15.00;81.80;;;;;;4973567;28;20031;-75
2021/05/14 00:44:35;;;;;;;22.67;13.63;;;15.00;81.60;;;;;;4973641;28;20019;-76
2021/05/14 00:47:07;;;;;;;19.38;14.45;;;15.00;81.70;;;;;;4973531;28;20023;-75
2021/05/14 00:49:33;;;;;;;17.45;14.88;;;15.10;81.50;;;;;;4973785;28;20041;-75
2021/05/14 00:51:59;;;;;;;30.25;26.60;;;15.10;81.40;;;;;;4973995;28;20113;-75
2021/05/14 00:54:27;;;;;;;36.13;30.02;;;15.10;81.20;;;;;;4973697;28;20030;-77
2021/05/14 00:56:53;;;;;;;36.40;31.17;;;15.10;81.00;;;;;;4973809;28;20019;-78
2021/05/14 00:59:19;;;;;;;38.30;30.48;;;15.10;80.90;;;;;;4973833;28;20058;-78
2021/05/14 01:01:45;;;;;;;24.17;19.33;;;15.10;80.90;;;;;;4972899;28;20027;-78
2021/05/14 01:04:11;;;;;;;28.70;20.98;;;15.10;81.00;;;;;;4973870;28;20055;-77
2021/05/14 01:06:37;;;;;;;22.65;18.08;;;15.10;81.00;;;;;;4973505;28;20439;-77
2021/05/14 01:09:03;;;;;;;22.50;17.48;;;15.10;81.00;;;;;;4973854;28;20019;-77
2021/05/14 01:11:29;;;;;;;28.08;18.05;;;15.10;81.10;;;;;;4973341;28;20038;-77
2021/05/14 01:13:57;;;;;;;30.77;20.25;;;15.10;81.20;;;;;;4974150;28;20363;-76
2021/05/14 01:16:23;;;;;;;26.92;17.70;;;15.00;81.40;;;;;;4973663;28;20098;-76
2021/05/14 01:18:50;;;;;;;22.55;17.33;;;15.00;81.40;;;;;;4973330;28;20434;-77
2021/05/14 01:21:16;;;;;;;26.80;18.55;;;15.00;81.40;;;;;;4973369;28;20023;-77
2021/05/14 01:23:42;;;;;;;24.67;18.67;;;15.00;81.60;;;;;;4973018;28;20362;-77
2021/05/14 01:26:17;;;;;;;23.33;16.35;;;15.00;81.80;;;;;;4973143;28;20027;-76
2021/05/14 01:28:43;;;;;;;22.45;15.23;;;15.00;82.00;;;;;;4973038;28;20057;-76
2021/05/14 01:31:10;;;;;;;19.75;13.27;;;14.90;82.00;;;;;;4973264;28;20079;-76
2021/05/14 01:33:36;;;;;;;16.63;11.52;;;14.90;81.90;;;;;;4973008;28;20058;-76
2021/05/14 01:36:04;;;;;;;17.52;13.07;;;14.90;81.80;;;;;;4973162;28;20474;-76
2021/05/14 01:38:30;;;;;;;15.82;10.65;;;14.90;81.80;;;;;;4976797;28;20844;-76
2021/05/14 01:40:56;;;;;;;16.60;11.55;;;14.90;81.80;;;;;;4976606;28;20027;-76
2021/05/14 01:43:21;;;;;;;17.15;12.57;;;14.90;81.90;;;;;;4976614;28;20023;-76
2021/05/14 01:45:47;;;;;;;16.17;11.43;;;14.90;81.90;;;;;;4976687;28;20385;-76
2021/05/14 01:48:13;;;;;;;16.10;11.75;;;14.80;82.00;;;;;;4976368;28;20026;-76
2021/05/14 01:50:40;;;;;;;15.63;11.85;;;14.80;82.00;;;;;;4976628;28;20055;-75
2021/05/14 01:53:06;;;;;;;16.23;12.52;;;14.80;82.00;;;;;;4976544;28;20433;-76
2021/05/14 01:55:32;;;;;;;30.73;17.10;;;14.80;82.20;;;;;;4976571;28;20034;-77
2021/05/14 01:57:58;;;;;;;32.78;19.00;;;14.70;82.10;;;;;;4976448;28;20027;-78
2021/05/14 02:00:24;;;;;;;19.13;12.90;;;14.70;82.10;;;;;;4976398;28;20031;-78
2021/05/14 02:02:50;;;;;;;24.20;18.98;;;14.70;82.30;;;;;;4976392;28;20046;-78
2021/05/14 02:05:15;;;;;;;21.23;15.60;;;14.60;82.50;;;;;;4976571;28;20027;-78
2021/05/14 02:07:41;;;;;;;17.08;12.82;;;14.60;82.60;;;;;;4976106;28;20377;-78
2021/05/14 02:10:08;;;;;;;16.40;11.77;;;14.50;82.80;;;;;;4976242;28;20023;-78
2021/05/14 02:12:34;;;;;;;16.75;12.52;;;14.50;83.00;;;;;;4976272;28;20109;-78
2021/05/14 02:14:59;;;;;;;19.27;11.93;;;14.50;83.20;;;;;;5007641;28;20066;-78
2021/05/14 02:17:25;;;;;;;18.83;12.00;;;14.50;83.30;;;;;;4976398;28;20031;-79
2021/05/14 02:19:53;;;;;;;21.30;12.90;;;14.40;83.40;;;;;;4976222;28;20027;-79
2021/05/14 02:22:19;;;;;;;20.00;12.73;;;14.40;83.60;;;;;;4976000;28;20019;-79
2021/05/14 02:24:45;;;;;;;23.60;12.32;;;14.30;83.90;;;;;;4976080;28;20023;-79
2021/05/14 02:27:11;;;;;;;27.88;12.27;;;14.30;84.10;;;;;;4975172;28;20030;-78
2021/05/14 02:29:37;;;;;;;21.65;12.70;;;14.30;84.30;;;;;;4977809;28;20027;-80
2021/05/14 02:32:04;;;;;;;20.10;11.32;;;14.30;84.40;;;;;;4976641;28;20019;-79
2021/05/14 02:34:30;;;;;;;22.35;11.52;;;14.30;84.50;;;;;;4976742;28;20035;-79
2021/05/14 02:36:55;;;;;;;21.38;11.77;;;14.40;84.70;;;;;;4976755;28;20066;-79
2021/05/14 02:39:21;;;;;;;23.77;11.13;;;14.40;84.80;;;;;;4976239;28;20041;-79
2021/05/14 02:41:47;;;;;;;19.95;11.32;;;14.40;84.80;;;;;;4976035;28;20027;-78
2021/05/14 02:44:13;;;;;;;19.90;11.52;;;14.50;84.90;;;;;;4976283;28;20409;-79
2021/05/14 02:46:40;;;;;;;18.58;11.40;;;14.60;84.90;;;;;;4976105;28;20023;-79
2021/05/14 02:49:06;;;;;;;20.13;12.07;;;14.70;85.60;;;;;;4974974;28;20019;-79
2021/05/14 02:51:32;;;;;;;20.48;12.30;;;15.10;85.60;;;;;;4975956;28;20033;-78
2021/05/14 02:53:58;;;;;;;21.10;11.85;;;15.40;85.00;;;;;;4976091;28;20055;-78
2021/05/14 02:56:24;;;;;;;15.32;10.40;;;15.50;83.90;;;;;;4975773;28;20106;-78
2021/05/14 02:58:50;;;;;;;15.10;11.60;;;15.60;83.40;;;;;;4975576;28;20079;-77
2021/05/14 03:01:16;;;;;;;22.75;11.80;;;15.60;83.30;;;;;;4975481;28;20110;-77
2021/05/14 03:03:41;;;;;;;13.88;10.60;;;15.60;83.10;;;;;;4976062;28;20441;-77
2021/05/14 03:06:07;;;;;;;15.82;9.68;;;15.70;83.70;;;;;;4975433;28;20085;-78
2021/05/14 03:08:34;;;;;;;15.00;10.05;;;16.00;83.80;;;;;;4974937;28;20022;-78
2021/05/14 03:11:00;;;;;;;12.75;9.93;;;16.10;82.50;;;;;;4975016;28;20089;-78
2021/05/14 03:13:26;;;;;;;10.77;8.95;;;16.00;82.20;;;;;;4975080;28;20031;-79
2021/05/14 03:15:52;;;;;;;12.80;8.48;;;16.10;82.50;;;;;;4975157;28;20030;-79
2021/05/14 03:18:17;;;;;;;15.32;8.48;;;16.00;82.00;;;;;;4976227;28;20034;-78
2021/05/14 03:20:43;;;;;;;14.30;8.15;;;15.90;81.70;;;;;;4975520;28;20030;-78
2021/05/14 03:23:09;;;;;;;13.02;8.70;;;15.70;81.80;;;;;;4974299;28;20027;-78
2021/05/14 03:25:34;;;;;;;9.15;8.05;;;15.60;82.50;;;;;;4975566;28;20023;-79
2021/05/14 03:28:00;;;;;;;12.68;8.38;;;15.50;83.10;;;;;;4975495;28;20043;-78
2021/05/14 03:30:26;;;;;;;14.00;7.20;;;15.50;83.50;;;;;;4975124;28;20105;-79
2021/05/14 03:32:51;;;;;;;10.93;7.65;;;15.40;83.70;;;;;;4975662;28;20030;-78
2021/05/14 03:35:17;;;;;;;10.18;7.20;;;15.40;83.80;;;;;;4982716;28;20027;-79
2021/05/14 03:37:43;;;;;;;13.25;7.55;;;15.50;84.80;;;;;;4983960;28;20038;-79
2021/05/14 03:43:05;;;;;;;12.48;6.97;;;15.50;83.90;;;;;;4967483;28;20034;-81
2021/05/14 03:45:31;;;;;;;9.77;7.00;;;15.50;83.80;;;;;;4976123;28;20015;-81
2021/05/14 03:47:58;;;;;;;10.95;6.97;;;15.50;83.70;;;;;;4975273;28;20031;-80
2021/05/14 03:50:31;;;;;;;12.82;7.47;;;15.40;83.40;;;;;;4974260;28;20440;-81
2021/05/14 03:52:59;;;;;;;11.27;8.45;;;15.40;83.80;;;;;;4975563;28;20115;-81
2021/05/14 03:55:25;;;;;;;11.93;7.93;;;15.40;84.20;;;;;;5006607;28;20027;-81
2021/05/14 03:57:50;;;;;;;15.27;8.98;;;15.50;84.50;;;;;;4974169;28;20027;-81
2021/05/14 04:00:16;;;;;;;15.77;9.35;;;15.50;84.50;;;;;;4974712;28;20041;-81
2021/05/14 04:02:43;;;;;;;16.45;10.85;;;15.60;84.80;;;;;;4975061;28;20771;-82
2021/05/14 04:05:09;;;;;;;13.32;9.65;;;15.60;84.60;;;;;;4975383;28;20027;-82
2021/05/14 04:07:38;;;;;;;14.00;10.80;;;15.90;84.80;;;;;;4975436;28;20023;-82
2021/05/14 04:10:14;;;;;;;17.67;12.15;;;16.10;83.40;;;;;;4975313;28;20719;-80
2021/05/14 04:15:08;;;;;;;20.58;15.65;;;16.20;82.90;;;;;;4974331;28;20042;-78
2021/05/14 04:17:35;;;;;;;24.40;15.77;;;16.20;83.70;;;;;;5005122;28;20022;-77
2021/05/14 04:20:00;;;;;;;22.90;18.35;;;16.10;84.20;;;;;;4973683;28;20053;-78
2021/05/14 04:22:27;;;;;;;25.85;19.20;;;16.10;84.70;;;;;;4973622;28;20466;-79
2021/05/14 04:24:53;;;;;;;20.75;16.85;;;16.30;85.60;;;;;;4973703;28;20433;-81
2021/05/14 04:27:19;;;;;;;25.40;20.05;;;16.90;89.10;;;;;;4973316;28;20078;-81
2021/05/14 04:29:45;;;;;;;24.83;18.92;;;18.30;90.60;;;;;;4974406;28;20065;-81
2021/05/14 04:32:11;;;;;;;24.55;17.45;;;19.90;90.80;;;;;;4974281;28;20409;-81
2021/05/14 04:34:37;;;;;;;23.73;17.88;;;21.40;88.50;;;;;;4974212;28;20023;-81
2021/05/14 04:37:03;;;;;;;14.68;12.98;;;22.20;78.70;;;;;;4974275;28;20477;-81
2021/05/14 04:39:29;;;;;;;17.35;12.43;;;22.70;75.90;;;;;;4973504;28;20026;-81
2021/05/14 04:41:58;;;;;;;16.38;10.70;;;23.50;73.70;;;;;;4973917;28;20029;-82
2021/05/14 04:44:24;;;;;;;12.30;9.73;;;24.10;68.70;;;;;;4973214;28;20082;-81
2021/05/14 04:46:51;;;;;;;10.40;8.98;;;23.90;65.10;;;;;;4976867;28;20039;-82
2021/05/14 04:49:17;;;;;;;10.88;8.85;;;23.60;64.20;;;;;;4974261;28;20069;-81
2021/05/14 04:51:42;;;;;;;14.95;8.15;;;24.10;66.10;;;;;;4974367;28;20034;-82
2021/05/14 04:54:08;;;;;;;11.88;6.68;;;25.20;65.80;;;;;;4974570;28;20029;-81
2021/05/14 04:56:34;;;;;;;8.13;6.93;;;26.20;63.10;;;;;;4973468;28;20061;-82
2021/05/14 04:59:00;;;;;;;13.63;6.00;;;27.40;61.30;;;;;;4973402;28;20034;-82
2021/05/14 05:01:25;;;;;;;16.17;6.95;;;28.10;58.50;;;;;;4973934;28;20033;-81
2021/05/14 05:03:54;;;;;;;9.57;6.00;;;28.80;56.50;;;;;;4973932;28;20073;-81
2021/05/14 05:06:20;;;;;;;8.05;5.40;;;29.40;55.20;;;;;;4973036;28;20395;-80
2021/05/14 05:08:46;;;;;;;11.70;7.05;;;30.10;54.20;;;;;;5003906;28;20031;-80
2021/05/14 05:11:12;;;;;;;10.48;6.20;;;30.60;52.30;;;;;;4972992;28;20038;-81
2021/05/14 05:13:38;;;;;;;13.32;6.88;;;31.00;50.90;;;;;;4977286;28;20035;-80
2021/05/14 05:16:04;;;;;;;9.57;6.63;;;31.30;50.40;;;;;;4976850;28;20039;-80
2021/05/14 05:18:30;;;;;;;9.23;6.93;;;31.40;48.20;;;;;;4976402;28;20027;-80
2021/05/14 05:20:56;;;;;;;13.85;7.50;;;31.30;48.60;;;;;;4976518;28;20492;-80
2021/05/14 05:23:22;;;;;;;15.80;7.10;;;31.60;49.50;;;;;;5007675;28;20023;-80
2021/05/14 05:25:48;;;;;;;14.73;7.55;;;32.00;48.50;;;;;;4977618;28;20058;-80
2021/05/14 05:28:14;;;;;;;11.02;6.32;;;31.80;47.40;;;;;;4977047;28;20050;-80
2021/05/14 05:30:40;;;;;;;13.25;6.80;;;31.80;47.50;;;;;;4976453;28;20038;-81
2021/05/14 05:33:06;;;;;;;16.27;7.57;;;31.90;47.30;;;;;;4974459;28;20042;-80
2021/05/14 05:35:32;;;;;;;16.70;7.80;;;31.30;46.80;;;;;;4977839;28;20031;-80
2021/05/14 05:37:58;;;;;;;14.63;6.78;;;30.20;46.10;;;;;;4975997;28;20049;-81
2021/05/14 05:40:23;;;;;;;14.50;7.05;;;29.10;46.80;;;;;;4976132;28;20042;-80
2021/05/14 05:42:49;;;;;;;25.55;8.85;;;28.00;48.50;;;;;;4975950;28;20362;-82
2021/05/14 05:45:15;;;;;;;20.90;9.52;;;27.00;48.90;;;;;;5007686;28;20714;-82
2021/05/14 05:47:41;;;;;;;22.30;9.60;;;26.30;50.50;;;;;;4975897;28;20022;-81
2021/05/14 05:50:07;;;;;;;15.40;7.65;;;25.90;51.60;;;;;;4975921;28;20151;-81
2021/05/14 05:52:33;;;;;;;14.65;7.10;;;25.50;52.30;;;;;;4976281;28;20034;-82
2021/05/14 05:54:59;;;;;;;18.33;9.52;;;25.00;52.90;;;;;;4976282;28;20031;-81
2021/05/14 05:57:25;;;;;;;23.02;10.90;;;24.70;54.10;;;;;;4977219;28;20047;-82
2021/05/14 05:59:50;;;;;;;27.95;10.45;;;24.70;55.10;;;;;;4977195;28;20031;-81
2021/05/14 06:02:16;;;;;;;27.48;9.98;;;24.90;55.60;;;;;;4976293;28;20030;-79
2021/05/14 06:04:42;;;;;;;24.45;9.93;;;25.10;55.90;;;;;;4975948;28;20038;-79
2021/05/14 06:07:08;;;;;;;26.73;12.10;;;25.40;55.80;;;;;;4974585;28;20019;-84
2021/05/14 06:09:34;;;;;;;28.48;11.02;;;25.60;55.00;;;;;;4977561;28;20446;-85
2021/05/14 06:12:00;;;;;;;18.83;11.07;;;25.70;54.30;;;;;;4977961;28;20031;-85
2021/05/14 06:14:26;;;;;;;14.48;9.27;;;25.60;54.30;;;;;;4977356;28;20025;-85
2021/05/14 06:16:52;;;;;;;32.60;10.15;;;25.40;54.50;;;;;;4977146;28;20110;-84
2021/05/14 06:19:30;;;;;;;26.95;10.13;;;25.10;54.50;;;;;;4977051;28;20035;-84
2021/05/14 06:21:56;;;;;;;23.67;9.70;;;24.60;54.70;;;;;;4977410;28;20458;-85
2021/05/14 06:24:22;;;;;;;26.85;10.63;;;24.10;55.30;;;;;;4976656;28;20073;-86
2021/05/14 06:26:47;;;;;;;23.27;11.10;;;23.60;56.50;;;;;;4976886;28;20133;-84
2021/05/14 06:29:14;;;;;;;24.38;10.05;;;23.30;57.10;;;;;;4976749;28;20126;-84
2021/05/14 06:31:40;;;;;;;13.95;9.18;;;23.00;57.70;;;;;;5011003;28;20057;-85
2021/05/14 06:34:06;;;;;;;15.18;9.30;;;22.80;58.30;;;;;;4986698;28;20023;-83
2021/05/14 06:36:33;;;;;;;20.42;10.05;;;22.80;59.20;;;;;;4979286;28;20029;-84
2021/05/14 06:38:58;;;;;;;17.80;9.90;;;23.00;59.80;;;;;;4977017;28;20027;-86
2021/05/14 06:41:24;;;;;;;12.40;9.57;;;23.60;59.80;;;;;;4976735;28;20114;-84
2021/05/14 06:43:50;;;;;;;20.30;11.88;;;24.50;58.90;;;;;;4976602;28;20019;-84
2021/05/14 06:46:16;;;;;;;21.23;10.98;;;25.50;56.90;;;;;;4976877;28;20541;-85
2021/05/14 06:48:44;;;;;;;22.42;11.27;;;26.20;55.20;;;;;;4976539;28;20027;-86
2021/05/14 06:51:10;;;;;;;25.30;11.35;;;26.70;53.60;;;;;;4976170;28;20042;-85
2021/05/14 06:53:35;;;;;;;20.45;11.63;;;27.00;52.50;;;;;;4975945;28;20023;-84
2021/05/14 06:56:01;;;;;;;25.58;11.90;;;27.40;51.40;;;;;;4975342;28;20031;-83
2021/05/14 06:58:27;;;;;;;23.88;10.60;;;27.80;50.50;;;;;;4975679;28;20426;-82
2021/05/14 07:00:53;;;;;;;18.60;9.70;;;28.20;50.20;;;;;;4975172;28;20019;-83
2021/05/14 07:03:19;;;;;;;30.90;10.50;;;28.70;48.80;;;;;;4974413;28;20035;-77
2021/05/14 07:05:44;;;;;;;20.67;10.18;;;29.10;47.90;;;;;;4974134;28;20027;-76
2021/05/14 07:08:10;;;;;;;21.38;10.32;;;29.30;47.40;;;;;;4973784;28;20492;-76
2021/05/14 07:10:36;;;;;;;16.42;10.07;;;29.40;46.60;;;;;;4975787;28;20085;-85
2021/05/14 07:13:02;;;;;;;23.00;10.95;;;29.20;46.40;;;;;;4980826;28;20031;-83
2021/05/14 07:15:27;;;;;;;39.38;18.27;;;29.00;46.10;;;;;;4975803;28;20091;-81
2021/05/14 07:17:53;;;;;;;35.30;16.65;;;29.00;45.70;;;;;;4975505;28;20545;-82
2021/05/14 07:20:20;;;;;;;34.85;18.00;;;28.80;45.30;;;;;;4974959;28;20058;-83
2021/05/14 07:22:46;;;;;;;30.58;14.98;;;28.60;45.00;;;;;;4975482;28;20022;-82
2021/05/14 07:25:13;;;;;;;29.65;17.42;;;28.30;44.90;;;;;;4974416;28;20458;-82
2021/05/14 07:27:39;;;;;;;26.40;16.20;;;28.10;45.40;;;;;;4974244;28;20543;-83
2021/05/14 07:30:06;;;;;;;26.05;16.77;;;27.90;45.70;;;;;;4973646;28;20054;-83
2021/05/14 07:32:32;;;;;;;32.05;19.10;;;27.70;46.00;;;;;;4969997;28;20027;-83
2021/05/14 07:34:58;;;;;;;20.08;14.73;;;27.70;46.30;;;;;;4972362;28;20037;-83
2021/05/14 07:37:23;;;;;;;19.30;12.00;;;27.70;46.60;;;;;;4973530;28;20416;-84
2021/05/14 07:39:49;;;;;;;22.77;12.57;;;27.40;46.60;;;;;;4974211;28;20039;-83
2021/05/14 07:42:15;;;;;;;19.20;12.13;;;27.30;47.50;;;;;;4974159;28;20015;-83
2021/05/14 07:44:42;;;;;;;22.23;13.57;;;27.90;48.30;;;;;;4973670;28;20093;-83
2021/05/14 07:47:07;;;;;;;22.65;12.75;;;28.50;47.40;;;;;;4979763;28;20113;-85
2021/05/14 07:49:33;;;;;;;28.95;13.27;;;29.20;46.80;;;;;;4977039;28;20065;-82
2021/05/14 07:51:59;;;;;;;21.23;12.57;;;29.90;46.10;;;;;;4974850;28;20035;-82
2021/05/14 07:54:25;;;;;;;21.70;13.73;;;30.70;45.20;;;;;;4974625;28;20035;-83
2021/05/14 07:56:50;;;;;;;19.15;12.27;;;31.30;44.20;;;;;;4974676;28;20031;-82
2021/05/14 07:59:16;;;;;;;24.05;13.20;;;31.70;43.50;;;;;;4973819;28;20060;-82
2021/05/14 08:01:42;;;;;;;19.88;12.70;;;32.00;42.90;;;;;;4974562;28;20037;-82
2021/05/14 08:04:08;;;;;;;19.98;12.90;;;32.10;42.00;;;;;;4973856;28;20023;-82
2021/05/14 08:06:33;;;;;;;18.02;11.93;;;31.80;42.10;;;;;;4974003;28;20050;-82
2021/05/14 08:09:03;;;;;;;16.38;11.85;;;31.40;41.90;;;;;;4974118;28;20482;-82
2021/05/14 08:11:29;;;;;;;18.65;11.00;;;30.80;42.40;;;;;;4974526;28;20441;-82
2021/05/14 08:13:55;;;;;;;19.45;12.35;;;30.30;43.20;;;;;;4974294;28;20058;-83
2021/05/14 08:16:20;;;;;;;17.25;11.48;;;30.20;43.40;;;;;;4974139;28;20110;-82
2021/05/14 08:18:46;;;;;;;15.75;11.27;;;30.40;43.60;;;;;;4974175;28;20035;-82
2021/05/14 08:21:12;;;;;;;20.75;10.85;;;30.60;43.30;;;;;;4979435;28;20027;-82
2021/05/14 08:23:38;;;;;;;21.65;12.02;;;30.40;43.20;;;;;;4979208;28;20497;-82
2021/05/14 08:26:03;;;;;;;22.45;11.30;;;30.50;43.50;;;;;;4975117;28;20065;-83
2021/05/14 08:28:29;;;;;;;25.33;10.88;;;30.60;43.30;;;;;;4973992;28;20055;-81
2021/05/14 08:30:55;;;;;;;26.13;8.10;;;30.60;43.20;;;;;;4973743;28;20422;-83
2021/05/14 08:33:22;;;;;;;12.75;5.70;;;30.40;43.50;;;;;;4974797;28;20486;-83
2021/05/14 08:35:48;;;;;;;10.55;6.03;;;30.50;42.40;;;;;;4975347;28;20425;-84
2021/05/14 08:38:14;;;;;;;8.88;5.25;;;30.50;42.10;;;;;;4973124;28;20027;-82
2021/05/14 08:40:40;;;;;;;11.77;5.22;;;30.70;41.80;;;;;;4973199;28;20392;-83
2021/05/14 08:43:07;;;;;;;10.50;5.03;;;30.80;41.30;;;;;;4973107;28;20497;-83
2021/05/14 08:45:33;;;;;;;7.90;5.65;;;30.90;41.50;;;;;;4971818;28;20058;-84
2021/05/14 08:47:59;;;;;;;15.43;6.82;;;31.00;41.20;;;;;;4972603;28;20453;-82
2021/05/14 08:50:29;;;;;;;12.52;8.70;;;31.00;41.40;;;;;;4973378;28;20102;-82
2021/05/14 08:52:55;;;;;;;15.68;8.93;;;30.90;41.80;;;;;;4973133;28;20369;-83
2021/05/14 08:55:24;;;;;;;24.27;9.70;;;30.90;42.20;;;;;;4975423;28;20098;-82
2021/05/14 08:57:51;;;;;;;14.77;9.70;;;30.80;42.30;;;;;;4981589;28;20029;-84
2021/05/14 09:00:17;;;;;;;15.73;9.60;;;30.50;42.10;;;;;;4976624;28;20054;-84
2021/05/14 09:02:43;;;;;;;17.98;9.40;;;30.10;42.70;;;;;;4974048;28;20026;-82
2021/05/14 09:05:25;;;;;;;26.98;16.60;;;29.70;43.20;;;;;;4972980;28;20417;-81
2021/05/14 09:07:52;;;;;;;22.08;10.27;;;29.40;43.50;;;;;;4973180;28;20026;-82
2021/05/14 09:10:18;;;;;;;14.18;10.02;;;29.10;44.40;;;;;;4973664;28;20413;-83
2021/05/14 09:12:45;;;;;;;15.85;9.05;;;28.80;44.10;;;;;;4973507;28;20046;-83
2021/05/14 09:15:22;;;;;;;16.35;9.85;;;28.50;44.40;;;;;;4972900;28;20042;-83
2021/05/14 09:18:10;;;;;;;20.63;10.63;;;28.40;44.80;;;;;;4973124;28;20029;-83
2021/05/14 09:20:43;;;;;;;12.90;9.60;;;28.30;45.20;;;;;;4971670;28;20019;-84
2021/05/14 09:23:35;;;;;;;20.52;9.98;;;28.30;45.00;;;;;;4972945;28;20023;-82
2021/05/14 09:26:11;;;;;;;21.27;9.07;;;28.00;45.00;;;;;;4963997;28;20126;-82
2021/05/14 09:28:48;;;;;;;10.52;8.82;;;27.90;45.50;;;;;;4973603;28;20093;-81
2021/05/14 09:31:17;;;;;;;15.35;9.13;;;27.60;45.70;;;;;;4982670;28;20023;-83
2021/05/14 09:34:00;;;;;;;13.27;8.95;;;27.40;45.80;;;;;;4988514;28;20029;-81
2021/05/14 09:36:31;;;;;;;12.65;9.18;;;27.10;45.90;;;;;;4973825;28;20053;-83
2021/05/14 09:39:01;;;;;;;15.07;9.57;;;26.90;46.30;;;;;;4973361;28;20054;-82
2021/05/14 09:41:43;;;;;;;10.55;7.55;;;26.80;46.60;;;;;;4973141;28;20027;-84
2021/05/14 09:44:16;;;;;;;15.02;7.82;;;26.80;46.90;;;;;;4972125;28;20097;-84
2021/05/14 09:46:44;;;;;;;15.35;7.97;;;26.70;47.00;;;;;;4972997;28;20078;-84
2021/05/14 09:49:17;;;;;;;14.13;7.63;;;26.70;47.30;;;;;;4971948;28;20049;-85
2021/05/14 09:51:50;;;;;;;17.77;7.78;;;26.50;47.00;;;;;;4973430;28;20111;-85
2021/05/14 09:54:36;;;;;;;17.95;7.82;;;26.20;47.30;;;;;;4973054;28;20025;-83
2021/05/14 09:57:41;;;;;;;13.70;8.07;;;26.00;48.20;;;;;;4973626;28;20748;-84
2021/05/14 10:00:09;;;;;;;18.00;9.57;;;25.90;48.60;;;;;;4976993;28;20033;-85
2021/05/14 10:02:37;;;;;;;15.70;9.82;;;25.90;48.30;;;;;;4976829;28;20358;-84
2021/05/14 10:05:04;;;;;;;19.10;9.10;;;25.90;48.30;;;;;;4976457;28;20039;-84
2021/05/14 10:07:32;;;;;;;16.35;8.80;;;26.00;48.50;;;;;;4978297;28;20027;-84
2021/05/14 10:10:03;;;;;;;14.52;8.88;;;26.30;48.90;;;;;;4990534;28;20030;-84
2021/05/14 10:12:29;;;;;;;12.07;8.35;;;26.60;48.60;;;;;;4976334;28;20040;-74
2021/05/14 10:14:58;;;;;;;15.95;8.45;;;26.80;48.10;;;;;;4975535;28;20038;-78
2021/05/14 10:17:27;;;;;;;16.48;8.07;;;27.00;48.00;;;;;;4975156;28;20499;-76
2021/05/14 10:19:54;;;;;;;18.65;9.75;;;27.00;47.50;;;;;;4975090;28;20102;-76
2021/05/14 10:22:25;;;;;;;15.73;9.73;;;27.00;47.20;;;;;;4973947;28;20054;-77
2021/05/14 10:24:53;;;;;;;24.15;10.93;;;26.80;47.10;;;;;;4975290;28;20031;-75
2021/05/14 10:27:29;;;;;;;17.90;11.20;;;26.70;47.40;;;;;;4974754;28;20510;-75
2021/05/14 10:30:00;;;;;;;13.90;9.57;;;26.60;47.40;;;;;;4975137;28;20381;-74
2021/05/14 10:32:47;;;;;;;22.75;11.20;;;26.30;47.30;;;;;;4975378;28;20026;-83
2021/05/14 10:35:30;;;;;;;18.23;10.30;;;26.10;47.90;;;;;;4975622;28;20050;-83
2021/05/14 10:38:04;;;;;;;21.77;10.77;;;26.10;48.30;;;;;;4975712;28;20485;-84
2021/05/14 10:40:33;;;;;;;19.83;11.18;;;26.10;48.50;;;;;;4975595;28;20114;-83
2021/05/14 10:43:03;;;;;;;17.60;10.00;;;26.20;48.30;;;;;;4974282;28;20019;-84
2021/05/14 10:45:59;;;;;;;28.23;9.60;;;26.30;48.10;;;;;;4977460;28;20054;-81
2021/05/14 10:48:26;;;;;;;12.55;7.47;;;26.30;48.10;;;;;;4984614;28;20078;-84
2021/05/14 10:51:00;;;;;;;14.63;7.25;;;26.40;48.00;;;;;;4977739;28;20110;-83
2021/05/14 10:53:44;;;;;;;13.13;7.70;;;26.40;48.00;;;;;;4976702;28;20054;-82
2021/05/14 10:56:10;;;;;;;14.48;8.13;;;26.50;48.00;;;;;;4976921;28;20034;-84
2021/05/14 10:58:51;;;;;;;13.45;6.07;;;26.70;48.10;;;;;;4977751;28;20572;-85
2021/05/14 11:01:40;;;;;;;13.63;4.75;;;26.80;47.60;;;;;;4975535;28;20077;-84
2021/05/14 11:04:12;;;;;;;15.48;4.30;;;27.00;46.90;;;;;;4974918;28;20023;-75
2021/05/14 11:06:49;;;;;;;9.95;4.05;;;27.20;46.30;;;;;;4974396;28;20438;-75
2021/05/14 11:09:16;;;;;;;7.15;3.13;;;27.30;45.80;;;;;;4973582;28;20106;-75
2021/05/14 11:12:05;;;;;;;6.97;3.53;;;27.50;45.40;;;;;;4974289;28;20161;-75
2021/05/14 11:14:43;;;;;;;9.55;3.70;;;27.60;44.90;;;;;;4974011;28;20089;-74
2021/05/14 11:17:16;;;;;;;8.55;3.30;;;27.60;44.20;;;;;;4974692;28;20113;-76
2021/05/14 11:19:47;;;;;;;9.80;4.43;;;27.60;43.90;;;;;;4974200;28;20023;-77
2021/05/14 11:22:15;;;;;;;7.72;3.75;;;27.50;43.60;;;;;;4974473;28;20076;-76
2021/05/14 11:24:49;;;;;;;7.43;3.25;;;27.40;43.70;;;;;;4972857;28;20113;-76
2021/05/14 11:27:16;;;;;;;6.25;3.20;;;27.40;43.60;;;;;;4974332;28;20333;-76
2021/05/14 11:29:53;;;;;;;7.72;3.78;;;27.30;43.80;;;;;;4974489;28;20031;-76
2021/05/14 11:32:27;;;;;;;10.73;3.80;;;27.40;44.00;;;;;;4973891;28;20026;-76
2021/05/14 11:34:53;;;;;;;11.20;3.20;;;27.60;44.00;;;;;;4974060;28;20065;-76
2021/05/14 11:37:21;;;;;;;5.97;3.03;;;27.70;43.80;;;;;;4973725;28;20469;-77
2021/05/14 11:39:47;;;;;;;5.55;3.20;;;27.80;43.30;;;;;;4973880;28;20109;-76
2021/05/14 11:42:18;;;;;;;10.43;3.25;;;27.80;43.30;;;;;;4973436;28;20098;-76
2021/05/14 11:45:01;;;;;;;5.90;3.50;;;27.70;43.10;;;;;;4973893;28;20058;-77
2021/05/14 11:47:29;;;;;;;7.25;3.28;;;27.60;43.20;;;;;;4972468;28;20354;-77
2021/05/14 11:49:56;;;;;;;11.50;4.13;;;27.60;43.40;;;;;;4973702;28;20054;-76
2021/05/14 11:52:42;;;;;;;5.78;3.30;;;27.50;43.40;;;;;;4973540;28;20102;-76
2021/05/14 11:55:15;;;;;;;7.88;3.40;;;27.40;43.40;;;;;;4973469;28;20031;-76
2021/05/14 11:57:49;;;;;;;8.50;3.60;;;27.20;43.30;;;;;;4973463;28;20042;-77
2021/05/14 12:00:16;;;;;;;6.30;3.70;;;27.00;44.50;;;;;;4973379;28;20078;-75
2021/05/14 12:02:45;;;;;;;10.75;5.03;;;26.90;43.70;;;;;;4973712;28;20023;-76
2021/05/14 12:05:17;;;;;;;14.75;3.83;;;26.80;43.40;;;;;;4973461;28;20544;-76
2021/05/14 12:07:43;;;;;;;8.55;3.70;;;26.90;43.50;;;;;;4972964;28;20030;-75
2021/05/14 12:10:12;;;;;;;9.85;3.30;;;27.00;43.70;;;;;;4973545;28;20031;-76
2021/05/14 12:12:39;;;;;;;7.38;3.10;;;27.10;43.50;;;;;;4973450;28;20470;-76
2021/05/14 12:15:23;;;;;;;6.15;3.90;;;27.20;43.20;;;;;;4973002;28;20101;-76
2021/05/14 12:17:56;;;;;;;7.45;3.88;;;27.20;42.90;;;;;;4973323;28;20125;-77
2021/05/14 12:20:31;;;;;;;8.05;3.30;;;27.20;42.70;;;;;;4972787;28;20027;-76
2021/05/14 12:23:03;;;;;;;10.23;3.20;;;27.10;42.40;;;;;;4972843;28;20034;-77
2021/05/14 12:25:40;;;;;;;7.00;3.80;;;27.20;42.40;;;;;;4975394;28;20031;-77
2021/05/14 12:28:41;;;;;;;10.70;3.78;;;27.10;42.50;;;;;;4971980;28;20046;-78
2021/05/14 12:31:32;;;;;;;10.57;3.20;;;27.20;42.50;;;;;;4971866;28;20041;-78
2021/05/14 12:34:15;;;;;;;10.30;3.28;;;27.30;42.50;;;;;;4972345;28;20479;-78
2021/05/14 12:36:41;;;;;;;14.02;3.42;;;27.40;42.40;;;;;;4973205;28;20027;-79
2021/05/14 12:39:07;;;;;;;6.78;2.97;;;27.40;42.30;;;;;;4973045;28;20117;-77
2021/05/14 12:41:39;;;;;;;5.75;2.95;;;27.30;42.10;;;;;;4973193;28;20026;-81
2021/05/14 12:44:20;;;;;;;4.90;3.08;;;27.20;41.60;;;;;;4973258;28;20022;-79